Alaskan Explorer — WDB9918 — position and weather

sailwx.info

Track history (hours):
 
Tides and Currents Weather Stations Pressure Air Temp Water Temp Dewpoint Dewpoint Depression Visibility Wind Speed Wind Dir Waves Ship Positions

Alaskan Explorer

Owner: ALASKA TANKER COMPANY, LLC, Beaverton, OR. More information available from US FCC via Universal Licensing System and Coast Guard Vessel Documentation Center.

Last reported at 2018-Jun-24 18:30 UTC. Time now 2018-Jun-24 18:46 UTC.
Position N 48°21' W 122°57'.

Type: Tanker. MMSI: 303294000.

Date/timePositionNaut miles runAvg speedWind from/ knotsBaromVisibWave heightAir tempDewpointWater temp
2018-Jun-24 18:30N 48°21' W 122°57'5 9.7
2018-Jun-24 18:00N 48°23' W 122°51'5 9.8
2018-Jun-24 17:30N 48°27' W 122°46'510.9
2018-Jun-24 17:00N 48°32' W 122°45'511.0
2018-Jun-24 16:30N 48°38' W 122°44'510.5
2018-Jun-24 16:00N 48°43' W 122°45'510.8
2018-Jun-24 15:30N 48°48' W 122°46'3 0.1
2018-Jun-23 14:39N 48°52' W 122°45'0 1.2
2018-Jun-23 14:30N 48°51' W 122°45'2 3.8
2018-Jun-23 14:00N 48°50' W 122°45'5 9.1
2018-Jun-23 13:30N 48°45' W 122°45'5 9.9
2018-Jun-23 13:00N 48°40' W 122°43'4 8.5
2018-Jun-23 12:30N 48°36' W 122°45'4 8.3
2018-Jun-23 12:00N 48°32' W 122°45'4 8.6
2018-Jun-23 11:30N 48°28' W 122°45'510.0
2018-Jun-23 11:00N 48°23' W 122°49'612.2
2018-Jun-23 10:30N 48°20' W 122°57'611.9
2018-Jun-23 10:00N 48°17' W 123°04'612.0
2018-Jun-23 09:30N 48°13' W 123°12'612.8
2018-Jun-23 09:01N 48°10' W 123°20'4 0.1
2018-Jun-22 00:58N 48°08' W 123°24'12 5.8
2018-Jun-21 22:49N 48°13' W 123°41'412.7
2018-Jun-21 22:29N 48°14' W 123°47'612.7
2018-Jun-21 22:00N 48°14' W 123°56'613.0
2018-Jun-21 21:30N 48°17' W 124°05'713.1
2018-Jun-21 21:00N 48°19' W 124°14'713.3
2018-Jun-21 20:30N 48°22' W 124°23'713.2
2018-Jun-21 20:00N 48°25' W 124°32'713.1
2018-Jun-21 19:30N 48°28' W 124°41'713.2
2018-Jun-21 19:00N 48°29' W 124°51'714.2
2018-Jun-21 18:30N 48°29' W 125°02'714.3
2018-Jun-21 18:00N 48°28' W 125°12'814.1
2018-Jun-21 17:28N 48°28' W 125°24'713.1
2018-Jun-21 16:57N 48°29' W 125°34'613.5
2018-Jun-21 16:30N 48°29' W 125°43'713.7
2018-Jun-21 16:00N 48°28' W 125°53'913.9
2018-Jun-21 15:23N 48°28' W 126°06'513.9
2018-Jun-21 15:00N 48°28' W 126°14'714.0
2018-Jun-21 14:30N 48°29' W 126°25'1612.4
2018-Jun-21 13:12N 48°29' W 126°49'3214.1
2018-Jun-21 10:56N 48°43' W 127°32'614.5
2018-Jun-21 10:30N 48°46' W 127°41'914.7
2018-Jun-21 09:54N 48°51' W 127°52'614.5
2018-Jun-21 09:29N 48°54' W 127°60'1414.3
2018-Jun-21 08:31N 49°01' W 128°18'314.2
2018-Jun-21 08:20N 49°03' W 128°21'514.3
2018-Jun-21 08:00N 49°05' W 128°27'714.3
2018-Jun-21 07:30N 49°09' W 128°36'714.1
2018-Jun-21 07:00N 49°13' W 128°45'914.2
2018-Jun-21 06:23N 49°17' W 128°57'514.2
2018-Jun-21 06:00N 49°20' W 129°04'713.9
2018-Jun-21 05:30N 49°24' W 129°13'714.1
2018-Jun-21 04:59N 49°28' W 129°22'714.2
2018-Jun-21 04:30N 49°31' W 129°31'714.1
2018-Jun-21 04:00N 49°35' W 129°41'714.3
2018-Jun-21 03:30N 49°39' W 129°50'3614.1
2018-Jun-21 00:56N 49°58' W 130°38'613.9
2018-Jun-21 00:30N 50°01' W 130°45'1213.7
2018-Jun-20 23:37N 50°08' W 131°02'113.7
2018-Jun-20 23:30N 50°09' W 131°04'1514.0
2018-Jun-20 22:25N 50°17' W 131°24'  
Track history (hours):
 
Tides and Currents Weather Stations Pressure Air Temp Water Temp Dewpoint Dewpoint Depression Visibility Wind Speed Wind Dir Waves Ship Positions

Alaskan Explorer

Owner: ALASKA TANKER COMPANY, LLC, Beaverton, OR. More information available from US FCC via Universal Licensing System and Coast Guard Vessel Documentation Center.

Last reported at 2018-Jun-24 18:30 UTC. Time now 2018-Jun-24 18:46 UTC.
Position N 48°21' W 122°57'.

Type: Tanker. MMSI: 303294000.

Date/timePositionNaut miles runAvg speedWind from/ knotsBaromVisibWave heightAir tempDewpointWater temp
2018-Jun-24 18:30N 48°21' W 122°57'5 9.7
2018-Jun-24 18:00N 48°23' W 122°51'5 9.8
2018-Jun-24 17:30N 48°27' W 122°46'510.9
2018-Jun-24 17:00N 48°32' W 122°45'511.0
2018-Jun-24 16:30N 48°38' W 122°44'510.5
2018-Jun-24 16:00N 48°43' W 122°45'510.8
2018-Jun-24 15:30N 48°48' W 122°46'3 0.1
2018-Jun-23 14:39N 48°52' W 122°45'0 1.2
2018-Jun-23 14:30N 48°51' W 122°45'2 3.8
2018-Jun-23 14:00N 48°50' W 122°45'5 9.1
2018-Jun-23 13:30N 48°45' W 122°45'5 9.9
2018-Jun-23 13:00N 48°40' W 122°43'4 8.5
2018-Jun-23 12:30N 48°36' W 122°45'4 8.3
2018-Jun-23 12:00N 48°32' W 122°45'4 8.6
2018-Jun-23 11:30N 48°28' W 122°45'510.0
2018-Jun-23 11:00N 48°23' W 122°49'612.2
2018-Jun-23 10:30N 48°20' W 122°57'611.9
2018-Jun-23 10:00N 48°17' W 123°04'612.0
2018-Jun-23 09:30N 48°13' W 123°12'612.8
2018-Jun-23 09:01N 48°10' W 123°20'4 0.1
2018-Jun-22 00:58N 48°08' W 123°24'12 5.8
2018-Jun-21 22:49N 48°13' W 123°41'412.7
2018-Jun-21 22:29N 48°14' W 123°47'612.7
2018-Jun-21 22:00N 48°14' W 123°56'613.0
2018-Jun-21 21:30N 48°17' W 124°05'713.1
2018-Jun-21 21:00N 48°19' W 124°14'713.3
2018-Jun-21 20:30N 48°22' W 124°23'713.2
2018-Jun-21 20:00N 48°25' W 124°32'713.1
2018-Jun-21 19:30N 48°28' W 124°41'713.2
2018-Jun-21 19:00N 48°29' W 124°51'714.2
2018-Jun-21 18:30N 48°29' W 125°02'714.3
2018-Jun-21 18:00N 48°28' W 125°12'814.1
2018-Jun-21 17:28N 48°28' W 125°24'713.1
2018-Jun-21 16:57N 48°29' W 125°34'613.5
2018-Jun-21 16:30N 48°29' W 125°43'713.7
2018-Jun-21 16:00N 48°28' W 125°53'913.9
2018-Jun-21 15:23N 48°28' W 126°06'513.9
2018-Jun-21 15:00N 48°28' W 126°14'714.0
2018-Jun-21 14:30N 48°29' W 126°25'1612.4
2018-Jun-21 13:12N 48°29' W 126°49'3214.1
2018-Jun-21 10:56N 48°43' W 127°32'614.5
2018-Jun-21 10:30N 48°46' W 127°41'914.7
2018-Jun-21 09:54N 48°51' W 127°52'614.5
2018-Jun-21 09:29N 48°54' W 127°60'1414.3
2018-Jun-21 08:31N 49°01' W 128°18'314.2
2018-Jun-21 08:20N 49°03' W 128°21'514.3
2018-Jun-21 08:00N 49°05' W 128°27'714.3
2018-Jun-21 07:30N 49°09' W 128°36'714.1
2018-Jun-21 07:00N 49°13' W 128°45'914.2
2018-Jun-21 06:23N 49°17' W 128°57'514.2
2018-Jun-21 06:00N 49°20' W 129°04'713.9
2018-Jun-21 05:30N 49°24' W 129°13'714.1
2018-Jun-21 04:59N 49°28' W 129°22'714.2
2018-Jun-21 04:30N 49°31' W 129°31'714.1
2018-Jun-21 04:00N 49°35' W 129°41'714.3
2018-Jun-21 03:30N 49°39' W 129°50'3614.1
2018-Jun-21 00:56N 49°58' W 130°38'613.9
2018-Jun-21 00:30N 50°01' W 130°45'1213.7
2018-Jun-20 23:37N 50°08' W 131°02'113.7
2018-Jun-20 23:30N 50°09' W 131°04'1514.0
2018-Jun-20 22:25N 50°17' W 131°24'  

Dump ship's entire track history